Time;durP1;ratioP1;P1;durP2;ratioP2;P2;SDS_P1;SDS_P2;PMS_P1;PMS_P2;Temp;Humidity;BMP_temperature;BMP_pressure;BME280_temperature;BME280_humidity;BME280_pressure;Samples;Min_cycle;Max_cycle;Signal;HPM_P1;HPM_P2
2022/05/05 00:00:15;;;;;;;1999.90;999.90;;;15.10;54.70;;;;;;5029418;28;20126;-80
2022/05/05 00:02:41;;;;;;;1999.90;999.90;;;15.10;54.80;;;;;;5028916;28;20036;-80
2022/05/05 00:05:08;;;;;;;1999.90;999.90;;;15.00;54.70;;;;;;5027794;28;20029;-80
2022/05/05 00:07:34;;;;;;;1999.90;999.90;;;15.00;54.80;;;;;;5038139;28;20053;-80
2022/05/05 00:14:23;;;;;;;1999.90;999.90;;;15.00;54.80;;;;;;5027793;28;20049;-80
2022/05/05 00:15:32;;;;;;;1999.90;999.90;;;14.90;54.90;;;;;;5043641;28;20394;-80
2022/05/05 00:17:58;;;;;;;1999.90;999.90;;;14.80;54.80;;;;;;5028529;28;20068;-80
2022/05/05 00:20:24;;;;;;;1999.90;999.90;;;14.90;55.00;;;;;;5026690;28;20121;-80
2022/05/05 00:22:50;;;;;;;1999.90;999.90;;;14.80;55.00;;;;;;5037727;28;20025;-80
2022/05/05 00:25:16;;;;;;;1999.90;999.90;;;14.80;55.10;;;;;;5030733;28;20040;-80
2022/05/05 00:27:42;;;;;;;1999.90;999.90;;;14.70;55.10;;;;;;5030918;28;20049;-80
2022/05/05 00:30:09;;;;;;;1999.90;999.90;;;14.70;55.20;;;;;;5044940;28;20360;-80
2022/05/05 00:32:35;;;;;;;1999.90;999.90;;;14.70;55.60;;;;;;5033249;28;20037;-80
2022/05/05 00:35:01;;;;;;;1999.90;999.90;;;14.70;55.20;;;;;;5033604;28;20029;-80
2022/05/05 00:37:27;;;;;;;1999.90;999.90;;;14.60;55.20;;;;;;5030325;28;20041;-80
2022/05/05 00:39:54;;;;;;;1999.90;999.90;;;14.60;55.20;;;;;;5031329;28;20033;-80
2022/05/05 00:42:20;;;;;;;1999.90;999.90;;;14.60;55.30;;;;;;5032477;28;20501;-80
2022/05/05 00:44:46;;;;;;;1999.90;999.90;;;14.60;55.30;;;;;;5030096;28;20501;-80
2022/05/05 00:47:16;;;;;;;1999.90;999.90;;;14.50;55.30;;;;;;5028071;28;20056;-80
2022/05/05 00:49:46;;;;;;;1999.90;999.90;;;14.50;55.40;;;;;;5028821;28;20029;-80
2022/05/05 00:52:12;;;;;;;1999.90;999.90;;;14.50;55.50;;;;;;5029125;28;20037;-80
2022/05/05 00:54:39;;;;;;;1999.90;999.90;;;14.50;55.50;;;;;;5029963;28;20060;-80
2022/05/05 00:57:05;;;;;;;1999.90;999.90;;;14.40;55.40;;;;;;5032242;28;20025;-80
2022/05/05 00:59:32;;;;;;;1999.90;999.90;;;14.40;55.50;;;;;;5028707;28;20022;-80
2022/05/05 01:01:59;;;;;;;1999.90;999.90;;;14.40;55.60;;;;;;5027629;28;20037;-80
2022/05/05 01:04:25;;;;;;;1999.90;999.90;;;14.30;55.60;;;;;;5028455;28;20466;-80
2022/05/05 01:06:51;;;;;;;1999.90;999.90;;;14.30;55.60;;;;;;5027328;28;20053;-80
2022/05/05 01:09:17;;;;;;;1999.90;999.90;;;14.20;55.60;;;;;;5032415;28;20029;-80
2022/05/05 01:11:43;;;;;;;1999.90;999.90;;;14.20;55.70;;;;;;5030829;28;20493;-80
2022/05/05 01:14:09;;;;;;;1999.90;999.90;;;14.20;55.80;;;;;;5028429;28;20030;-80
2022/05/05 01:16:36;;;;;;;1999.90;999.90;;;14.20;55.80;;;;;;5027504;28;20048;-80
2022/05/05 01:19:02;;;;;;;1999.90;999.90;;;14.20;55.80;;;;;;5041382;28;20037;-80
2022/05/05 01:21:28;;;;;;;1999.90;999.90;;;14.10;55.80;;;;;;5044731;28;20033;-80
2022/05/05 01:23:54;;;;;;;1999.90;999.90;;;14.10;55.90;;;;;;5031824;28;20475;-80
2022/05/05 01:29:06;;;;;;;1999.90;999.90;;;14.10;55.90;;;;;;5030778;28;20389;-80
2022/05/05 01:31:32;;;;;;;1999.90;999.90;;;14.00;56.00;;;;;;5023249;28;20034;-80
2022/05/05 01:33:58;;;;;;;1999.90;999.90;;;14.00;56.00;;;;;;5028779;28;20029;-80
2022/05/05 01:36:24;;;;;;;1999.90;999.90;;;14.00;56.00;;;;;;5028907;28;20033;-80
2022/05/05 01:38:50;;;;;;;1999.90;999.90;;;13.90;56.10;;;;;;5030527;28;20037;-80
2022/05/05 01:41:16;;;;;;;1999.90;999.90;;;13.90;56.20;;;;;;5030380;28;20064;-80
2022/05/05 01:43:43;;;;;;;1999.90;999.90;;;13.90;56.30;;;;;;5039734;28;20458;-80
2022/05/05 01:46:10;;;;;;;1999.90;999.90;;;13.90;56.40;;;;;;5011490;28;20061;-80
2022/05/05 01:48:36;;;;;;;1999.90;999.90;;;13.80;56.40;;;;;;5029906;28;20038;-80
2022/05/05 01:51:02;;;;;;;1999.90;999.90;;;13.80;56.40;;;;;;5030652;28;20450;-80
2022/05/05 01:53:36;;;;;;;1999.90;999.90;;;13.80;56.50;;;;;;5029309;28;20048;-80
2022/05/05 01:56:06;;;;;;;1999.90;999.90;;;13.70;56.50;;;;;;5036805;28;20040;-80
2022/05/05 01:58:32;;;;;;;1999.90;999.90;;;13.70;56.70;;;;;;5031170;28;20041;-80
2022/05/05 02:00:58;;;;;;;1999.90;999.90;;;13.70;56.70;;;;;;5026921;28;20474;-79
2022/05/05 02:03:25;;;;;;;1999.90;999.90;;;13.70;56.80;;;;;;5031376;28;20025;-80
2022/05/05 02:05:51;;;;;;;1999.90;999.90;;;13.70;56.80;;;;;;5030223;28;20037;-80
2022/05/05 02:08:17;;;;;;;1999.90;999.90;;;13.70;56.90;;;;;;5034699;28;20037;-80
2022/05/05 02:10:44;;;;;;;1999.90;999.90;;;13.60;56.90;;;;;;5028642;28;20025;-80
2022/05/05 02:13:10;;;;;;;1999.90;999.90;;;13.70;57.00;;;;;;5040021;28;20038;-80
2022/05/05 02:15:36;;;;;;;1999.90;999.90;;;13.70;57.00;;;;;;5028969;28;20030;-80
2022/05/05 02:18:09;;;;;;;1999.90;999.90;;;13.60;57.10;;;;;;5030576;28;20065;-80
2022/05/05 02:20:37;;;;;;;1999.90;999.90;;;13.60;57.20;;;;;;5031679;28;20036;-80
2022/05/05 02:23:04;;;;;;;1999.90;999.90;;;13.60;57.30;;;;;;5031736;28;20018;-79
2022/05/05 02:25:30;;;;;;;1999.90;999.90;;;13.50;57.30;;;;;;5028681;28;20395;-80
2022/05/05 02:27:56;;;;;;;1999.90;999.90;;;13.50;57.40;;;;;;5028540;28;20044;-80
2022/05/05 02:30:23;;;;;;;1999.90;999.90;;;13.50;57.40;;;;;;5029925;28;20037;-79
2022/05/05 02:32:49;;;;;;;1999.90;999.90;;;13.50;57.50;;;;;;5028555;28;20022;-79
2022/05/05 02:35:15;;;;;;;1999.90;999.90;;;13.50;57.50;;;;;;5027038;28;20033;-80
2022/05/05 02:40:27;;;;;;;1999.90;999.90;;;13.50;57.70;;;;;;5015308;28;20033;-80
2022/05/05 02:42:56;;;;;;;1999.90;999.90;;;13.50;57.80;;;;;;5024639;28;20486;-80
2022/05/05 02:45:23;;;;;;;1999.90;999.90;;;13.50;57.80;;;;;;5026272;28;20379;-80
2022/05/05 02:47:49;;;;;;;1999.90;999.90;;;13.50;57.80;;;;;;5028682;28;20100;-80
2022/05/05 02:50:16;;;;;;;1999.90;999.90;;;13.50;57.90;;;;;;5017676;28;20042;-80
2022/05/05 02:52:42;;;;;;;1999.90;999.90;;;13.50;57.90;;;;;;5031315;28;20033;-80
2022/05/05 02:55:08;;;;;;;1999.90;999.90;;;13.50;58.00;;;;;;5027093;28;20025;-80
2022/05/05 02:57:34;;;;;;;1999.90;999.90;;;13.40;58.00;;;;;;5012014;28;20049;-80
2022/05/05 03:00:01;;;;;;;1999.90;999.90;;;13.40;58.10;;;;;;5029121;28;20048;-80
2022/05/05 03:02:27;;;;;;;1999.90;999.90;;;13.40;58.20;;;;;;5009788;28;20052;-79
2022/05/05 03:04:53;;;;;;;1999.90;999.90;;;13.40;58.20;;;;;;5028022;28;20040;-80
2022/05/05 03:07:20;;;;;;;1999.90;999.90;;;13.40;58.30;;;;;;5027547;28;20052;-80
2022/05/05 03:09:46;;;;;;;1999.90;999.90;;;13.30;58.40;;;;;;5041754;28;20038;-80
2022/05/05 03:12:12;;;;;;;1999.90;999.90;;;13.30;58.40;;;;;;5042417;28;20060;-80
2022/05/05 03:14:38;;;;;;;1999.90;999.90;;;13.40;58.40;;;;;;5027933;28;20044;-80
2022/05/05 03:17:05;;;;;;;1999.90;999.90;;;13.30;58.40;;;;;;5026993;28;20049;-80
2022/05/05 03:19:31;;;;;;;1999.90;999.90;;;13.30;58.40;;;;;;5039853;28;20052;-80
2022/05/05 03:21:57;;;;;;;1999.90;999.90;;;13.30;58.50;;;;;;5027508;28;20034;-80
2022/05/05 03:24:23;;;;;;;1999.90;999.90;;;13.30;58.60;;;;;;5026711;28;20493;-80
2022/05/05 03:26:49;;;;;;;1999.90;999.90;;;13.30;58.60;;;;;;5012813;28;20049;-80
2022/05/05 03:29:15;;;;;;;1999.90;999.90;;;13.20;58.60;;;;;;5026193;28;20048;-80
2022/05/05 03:31:42;;;;;;;1999.90;999.90;;;13.30;58.80;;;;;;5027118;28;20041;-80
2022/05/05 03:34:08;;;;;;;1999.90;999.90;;;13.20;58.80;;;;;;5038711;28;20029;-80
2022/05/05 03:36:34;;;;;;;1999.90;999.90;;;13.20;58.80;;;;;;5027949;28;20044;-80
2022/05/05 03:39:00;;;;;;;1999.90;999.90;;;13.20;59.00;;;;;;5028804;28;20030;-80
2022/05/05 03:41:26;;;;;;;1999.90;999.90;;;13.10;59.00;;;;;;5026968;28;20041;-80
2022/05/05 03:43:52;;;;;;;1999.90;999.90;;;13.10;59.10;;;;;;5026132;28;20466;-80
2022/05/05 03:46:19;;;;;;;1999.90;999.90;;;13.10;59.10;;;;;;5027117;28;20369;-80
2022/05/05 03:48:45;;;;;;;1999.90;999.90;;;13.00;59.20;;;;;;5027220;28;20041;-80
2022/05/05 03:51:11;;;;;;;1999.90;999.90;;;13.00;59.20;;;;;;5025635;28;20402;-80
2022/05/05 03:53:37;;;;;;;1999.90;999.90;;;13.00;59.30;;;;;;5016849;28;20045;-80
2022/05/05 03:56:04;;;;;;;1999.90;999.90;;;13.00;59.30;;;;;;5030111;28;20028;-80
2022/05/05 03:58:31;;;;;;;1999.90;999.90;;;12.90;59.30;;;;;;5033280;28;20041;-80
2022/05/05 04:00:57;;;;;;;1999.90;999.90;;;12.90;59.40;;;;;;5030881;28;20038;-80
2022/05/05 04:03:33;;;;;;;1999.90;999.90;;;12.90;59.40;;;;;;5030420;28;20041;-80
2022/05/05 04:05:59;;;;;;;1999.90;999.90;;;12.90;59.40;;;;;;5032257;28;20482;-80
2022/05/05 04:08:26;;;;;;;1999.90;999.90;;;12.90;59.50;;;;;;5030788;28;20402;-80
2022/05/05 04:10:52;;;;;;;1999.90;999.90;;;12.80;59.50;;;;;;5023636;28;20029;-80
2022/05/05 04:13:19;;;;;;;1999.90;999.90;;;12.80;59.50;;;;;;5031673;28;20041;-80
2022/05/05 04:15:47;;;;;;;1999.90;999.90;;;12.80;59.60;;;;;;5013191;28;20037;-80
2022/05/05 04:18:14;;;;;;;1999.90;999.90;;;12.80;59.60;;;;;;5029517;28;20040;-80
2022/05/05 04:20:42;;;;;;;1999.90;999.90;;;12.80;59.70;;;;;;5013331;28;20044;-80
2022/05/05 04:23:08;;;;;;;1999.90;999.90;;;12.70;59.70;;;;;;5029618;28;20025;-80
2022/05/05 04:25:35;;;;;;;1999.90;999.90;;;12.70;59.70;;;;;;5029340;28;20040;-80
2022/05/05 04:28:01;;;;;;;1999.90;999.90;;;12.70;59.80;;;;;;5026252;28;20431;-80
2022/05/05 04:30:27;;;;;;;1999.90;999.90;;;12.70;59.80;;;;;;5046026;28;20041;-80
2022/05/05 04:32:54;;;;;;;1999.90;999.90;;;12.70;59.80;;;;;;5016646;28;20037;-80
2022/05/05 04:35:20;;;;;;;1999.90;999.90;;;12.70;59.90;;;;;;5030630;28;20066;-80
2022/05/05 04:37:46;;;;;;;1999.90;999.90;;;12.60;60.00;;;;;;5037641;28;20025;-80
2022/05/05 04:40:14;;;;;;;1999.90;999.90;;;12.60;60.00;;;;;;5014442;28;20380;-80
2022/05/05 04:42:41;;;;;;;1999.90;999.90;;;12.50;60.10;;;;;;5014144;28;20048;-80
2022/05/05 04:45:07;;;;;;;1999.90;999.90;;;12.50;60.30;;;;;;5032225;28;20053;-80
2022/05/05 04:47:33;;;;;;;1999.90;999.90;;;12.40;60.40;;;;;;5030175;28;20471;-80
2022/05/05 04:50:00;;;;;;;1999.90;999.90;;;12.30;60.50;;;;;;5024621;28;20414;-80
2022/05/05 04:52:26;;;;;;;1999.90;999.90;;;12.30;60.70;;;;;;5015304;28;20485;-80
2022/05/05 04:54:53;;;;;;;1999.90;999.90;;;12.20;60.90;;;;;;5028802;28;20033;-80
2022/05/05 04:57:19;;;;;;;1999.90;999.90;;;12.20;61.00;;;;;;5045304;28;20034;-80
2022/05/05 04:59:45;;;;;;;1999.90;999.90;;;12.10;60.90;;;;;;5029922;28;20037;-80
2022/05/05 05:02:11;;;;;;;1999.90;999.90;;;12.10;61.00;;;;;;5029825;28;20044;-80
2022/05/05 05:04:37;;;;;;;1999.90;999.90;;;12.10;61.10;;;;;;5030065;28;20482;-80
2022/05/05 05:07:04;;;;;;;1999.90;999.90;;;12.10;61.20;;;;;;5041744;28;20044;-81
2022/05/05 05:09:30;;;;;;;1999.90;999.90;;;12.00;61.40;;;;;;5044231;28;20040;-80
2022/05/05 05:11:56;;;;;;;1999.90;999.90;;;12.00;61.50;;;;;;5031672;28;20033;-80
2022/05/05 05:14:22;;;;;;;1999.90;999.90;;;11.90;61.50;;;;;;5018154;28;20045;-80
2022/05/05 05:16:48;;;;;;;1999.90;999.90;;;11.90;61.60;;;;;;5017536;28;20049;-80
2022/05/05 05:19:14;;;;;;;1999.90;999.90;;;11.90;61.60;;;;;;5013196;28;20383;-80
2022/05/05 05:21:40;;;;;;;1999.90;999.90;;;11.90;61.60;;;;;;5028827;28;20029;-81
2022/05/05 05:24:07;;;;;;;1999.90;999.90;;;11.90;61.60;;;;;;5031453;28;20055;-80
2022/05/05 05:26:33;;;;;;;1999.90;999.90;;;11.90;61.50;;;;;;5029761;28;20041;-80
2022/05/05 05:28:59;;;;;;;1999.90;999.90;;;11.90;61.50;;;;;;5029623;28;20037;-81
2022/05/05 05:31:26;;;;;;;1999.90;999.90;;;12.00;61.50;;;;;;5040116;28;20064;-80
2022/05/05 05:33:52;;;;;;;1999.90;999.90;;;12.00;61.50;;;;;;5012686;28;20052;-80
2022/05/05 05:36:21;;;;;;;1999.90;999.90;;;12.10;61.50;;;;;;5011377;28;20501;-81
2022/05/05 05:38:47;;;;;;;1999.90;999.90;;;12.10;61.60;;;;;;5031944;28;20032;-80
2022/05/05 05:41:13;;;;;;;1999.90;999.90;;;12.10;61.60;;;;;;5031019;28;20045;-80
2022/05/05 05:43:39;;;;;;;1999.90;999.90;;;12.10;61.60;;;;;;5029394;28;20029;-80
2022/05/05 05:46:05;;;;;;;1999.90;999.90;;;12.10;61.50;;;;;;5026251;28;20332;-81
2022/05/05 05:48:32;;;;;;;1999.90;999.90;;;12.20;61.60;;;;;;5030811;28;20041;-81
2022/05/05 05:50:58;;;;;;;1999.90;999.90;;;12.20;61.50;;;;;;5031506;28;20033;-81
2022/05/05 05:53:24;;;;;;;1999.90;999.90;;;12.30;61.50;;;;;;5033841;28;20497;-81
2022/05/05 05:55:50;;;;;;;1999.90;999.90;;;12.30;61.50;;;;;;5033312;28;20021;-81
2022/05/05 05:58:16;;;;;;;1999.90;999.90;;;12.30;61.50;;;;;;5029308;28;20037;-81
2022/05/05 06:00:42;;;;;;;1999.90;999.90;;;12.40;61.50;;;;;;5028117;28;20037;-81
2022/05/05 06:05:53;;;;;;;1999.90;999.90;;;12.50;61.40;;;;;;5037635;28;20034;-81
2022/05/05 06:08:19;;;;;;;1999.90;999.90;;;12.60;61.40;;;;;;5015839;28;20107;-81
2022/05/05 06:10:45;;;;;;;1504.95;754.67;;;12.60;61.30;;;;;;5028754;28;20025;-82
2022/05/05 06:13:12;;;;;;;1505.43;755.17;;;12.70;61.30;;;;;;5028972;28;20033;-81
2022/05/05 06:15:38;;;;;;;1999.90;999.90;;;12.80;61.40;;;;;;5026998;28;20038;-81
2022/05/05 06:18:04;;;;;;;1999.90;999.90;;;12.90;61.40;;;;;;5030706;28;20410;-82
2022/05/05 06:20:32;;;;;;;1999.90;999.90;;;13.00;61.40;;;;;;5032071;28;20053;-82
2022/05/05 06:22:59;;;;;;;1999.90;999.90;;;13.00;61.30;;;;;;5031828;28;20581;-81
2022/05/05 06:25:25;;;;;;;1999.90;999.90;;;13.10;61.30;;;;;;5028459;28;20038;-81
2022/05/05 06:27:54;;;;;;;1999.90;999.90;;;13.10;61.20;;;;;;5028511;28;20496;-81
2022/05/05 06:30:20;;;;;;;1999.90;999.90;;;13.20;61.20;;;;;;5043150;28;20033;-81
2022/05/05 06:32:47;;;;;;;1999.90;999.90;;;13.30;61.30;;;;;;5029692;28;20037;-81
2022/05/05 06:35:13;;;;;;;1999.90;999.90;;;13.30;61.30;;;;;;5035866;28;20046;-81
2022/05/05 06:37:39;;;;;;;1999.90;999.90;;;13.30;61.40;;;;;;5031778;28;20352;-81
2022/05/05 06:40:06;;;;;;;1999.90;999.90;;;13.30;61.40;;;;;;5028075;28;20029;-81
2022/05/05 06:42:32;;;;;;;1999.90;999.90;;;13.40;61.50;;;;;;5010721;28;26834;-81
2022/05/05 06:44:58;;;;;;;1999.90;999.90;;;13.40;61.40;;;;;;5029380;28;20029;-81
2022/05/05 06:47:24;;;;;;;1999.90;999.90;;;13.50;61.40;;;;;;5009953;28;20517;-81
2022/05/05 06:49:51;;;;;;;1999.90;999.90;;;13.60;61.30;;;;;;5027878;28;20033;-81
2022/05/05 06:52:17;;;;;;;1999.90;999.90;;;13.70;61.20;;;;;;5022734;28;20038;-81
2022/05/05 06:54:43;;;;;;;1999.90;999.90;;;13.80;61.10;;;;;;5027023;28;20467;-81
2022/05/05 06:57:09;;;;;;;1999.90;999.90;;;14.10;60.90;;;;;;5034607;28;20036;-81
2022/05/05 06:59:35;;;;;;;1999.90;999.90;;;14.20;60.60;;;;;;5031156;28;20037;-81
2022/05/05 07:02:02;;;;;;;1999.90;999.90;;;14.40;60.50;;;;;;5014181;28;20041;-81
2022/05/05 07:07:14;;;;;;;1999.90;999.90;;;14.90;60.00;;;;;;5042220;28;20033;-81
2022/05/05 07:12:28;;;;;;;1999.90;999.90;;;15.70;59.20;;;;;;5032289;28;20070;-81
2022/05/05 07:14:55;;;;;;;1999.90;999.90;;;16.20;58.80;;;;;;5030007;28;20036;-81
2022/05/05 07:17:24;;;;;;;1999.90;999.90;;;16.50;58.30;;;;;;5009661;28;20049;-81
2022/05/05 07:19:51;;;;;;;1999.90;999.90;;;16.90;58.00;;;;;;5026094;28;20030;-81
2022/05/05 07:22:17;;;;;;;1999.90;999.90;;;17.10;57.70;;;;;;5026520;28;20029;-81
2022/05/05 07:24:43;;;;;;;1999.90;999.90;;;17.30;57.70;;;;;;5027232;28;20507;-81
2022/05/05 07:27:10;;;;;;;1999.90;999.90;;;17.30;57.80;;;;;;5042078;28;20359;-81
2022/05/05 07:29:37;;;;;;;1999.90;999.90;;;17.30;57.90;;;;;;5027626;28;20490;-81
2022/05/05 07:32:04;;;;;;;1999.90;999.90;;;17.30;57.90;;;;;;5034189;28;20489;-81
2022/05/05 07:34:30;;;;;;;1999.90;999.90;;;17.20;58.10;;;;;;5028982;28;20490;-81
2022/05/05 07:36:56;;;;;;;1999.90;999.90;;;17.20;58.30;;;;;;5026580;28;20026;-81
2022/05/05 07:39:25;;;;;;;1999.90;999.90;;;17.20;58.40;;;;;;5029686;28;20041;-81
2022/05/05 07:41:51;;;;;;;1999.90;999.90;;;17.30;58.30;;;;;;5029558;28;20466;-81
2022/05/05 07:44:17;;;;;;;1999.90;999.90;;;17.40;58.30;;;;;;5035612;28;20356;-82
2022/05/05 07:46:43;;;;;;;1999.90;999.90;;;17.40;58.30;;;;;;5030005;28;20470;-81
2022/05/05 07:49:10;;;;;;;1999.90;999.90;;;17.40;58.30;;;;;;5026104;28;20490;-81
2022/05/05 07:51:36;;;;;;;1999.90;999.90;;;17.30;58.40;;;;;;5011280;28;20034;-81
2022/05/05 07:56:47;;;;;;;1999.90;999.90;;;17.10;59.20;;;;;;5022423;28;20026;-81
2022/05/05 07:59:13;;;;;;;1999.90;999.90;;;17.10;58.80;;;;;;5025957;28;20056;-81
2022/05/05 08:01:39;;;;;;;1999.90;999.90;;;17.00;58.90;;;;;;5011738;28;20045;-81
2022/05/05 08:04:06;;;;;;;1999.90;999.90;;;17.00;59.10;;;;;;5027415;28;20021;-81
2022/05/05 08:06:32;;;;;;;1999.90;999.90;;;17.10;59.00;;;;;;5042987;28;20230;-81
2022/05/05 08:08:58;;;;;;;1999.90;999.90;;;17.30;58.70;;;;;;5029112;28;20037;-81
2022/05/05 08:11:24;;;;;;;1999.90;999.90;;;17.30;58.50;;;;;;5027280;28;20045;-81
2022/05/05 08:13:52;;;;;;;1999.90;999.90;;;17.30;58.50;;;;;;5038046;28;20033;-81
2022/05/05 08:16:19;;;;;;;1999.90;999.90;;;17.30;58.80;;;;;;5026269;28;20049;-82
2022/05/05 08:18:45;;;;;;;1999.90;999.90;;;17.40;58.60;;;;;;5026587;28;20045;-81
2022/05/05 08:21:11;;;;;;;1999.90;999.90;;;17.60;58.40;;;;;;5030837;28;20033;-82
2022/05/05 08:23:37;;;;;;;1999.90;999.90;;;17.90;58.20;;;;;;5030397;28;20466;-82
2022/05/05 08:28:49;;;;;;;1999.90;999.90;;;18.10;57.70;;;;;;5031012;28;20026;-81
2022/05/05 08:31:15;;;;;;;1999.90;999.90;;;18.20;57.70;;;;;;5027267;28;20398;-82
2022/05/05 08:33:41;;;;;;;1999.90;999.90;;;18.30;57.70;;;;;;4994277;28;20033;-82
2022/05/05 08:36:08;;;;;;;1999.90;999.90;;;18.40;57.50;;;;;;5028098;28;20029;-81
2022/05/05 08:38:35;;;;;;;1999.90;999.90;;;18.30;57.50;;;;;;5008755;28;20481;-81
2022/05/05 08:41:04;;;;;;;1999.90;999.90;;;18.40;57.80;;;;;;5027030;28;20029;-81
2022/05/05 08:43:30;;;;;;;1999.90;999.90;;;18.30;57.80;;;;;;5010391;28;20032;-81
2022/05/05 08:45:59;;;;;;;1999.90;999.90;;;18.20;57.80;;;;;;5026042;28;20033;-81
2022/05/05 08:48:25;;;;;;;1999.90;999.90;;;18.10;58.00;;;;;;5045938;28;20038;-81
2022/05/05 08:50:59;;;;;;;1999.90;999.90;;;18.00;58.20;;;;;;4997610;28;20037;-81
2022/05/05 08:53:29;;;;;;;1999.90;999.90;;;17.80;58.40;;;;;;5012919;28;20026;-81
2022/05/05 08:55:55;;;;;;;1999.90;999.90;;;17.70;58.60;;;;;;5013633;28;20038;-81
2022/05/05 08:58:21;;;;;;;1999.90;999.90;;;17.70;58.70;;;;;;5028429;28;20033;-81
2022/05/05 09:00:52;;;;;;;1999.90;999.90;;;17.70;58.70;;;;;;5026773;28;20053;-81
2022/05/05 09:03:19;;;;;;;1999.90;999.90;;;17.60;58.70;;;;;;5045185;28;20034;-81
2022/05/05 09:05:50;;;;;;;1999.90;999.90;;;17.60;58.70;;;;;;5031269;28;20060;-81
2022/05/05 09:08:23;;;;;;;1999.90;999.90;;;17.60;58.80;;;;;;5012662;28;20037;-81
2022/05/05 09:10:50;;;;;;;1999.90;999.90;;;17.80;58.80;;;;;;5028921;28;20041;-81
2022/05/05 09:13:23;;;;;;;1999.90;999.90;;;17.90;58.50;;;;;;5012507;28;20022;-82
2022/05/05 09:15:49;;;;;;;1999.90;999.90;;;18.10;58.30;;;;;;5029055;28;20030;-81
2022/05/05 09:18:19;;;;;;;1999.90;999.90;;;18.30;58.10;;;;;;5045006;28;20036;-82
2022/05/05 09:20:46;;;;;;;1999.90;999.90;;;18.40;57.80;;;;;;5032121;28;20021;-81
2022/05/05 09:26:30;;;;;;;1999.90;999.90;;;18.60;57.60;;;;;;5021872;28;20029;-81
2022/05/05 09:28:56;;;;;;;1999.90;999.90;;;18.50;57.60;;;;;;5016701;28;20025;-81
2022/05/05 09:31:22;;;;;;;1999.90;999.90;;;18.50;57.80;;;;;;5029910;28;20046;-82
2022/05/05 09:33:49;;;;;;;1999.90;999.90;;;18.40;57.80;;;;;;5030266;28;20037;-81
2022/05/05 09:36:16;;;;;;;1999.90;999.90;;;18.50;57.80;;;;;;5024779;28;20526;-82
2022/05/05 09:38:55;;;;;;;1999.90;999.90;;;18.60;57.70;;;;;;5030100;28;20029;-81
2022/05/05 09:41:34;;;;;;;1999.90;999.90;;;18.70;57.50;;;;;;5021681;28;20053;-81
2022/05/05 09:44:14;;;;;;;1999.90;999.90;;;18.80;57.30;;;;;;5017024;28;20028;-81
2022/05/05 09:46:43;;;;;;;1999.90;999.90;;;18.90;57.10;;;;;;5015894;28;20360;-81
2022/05/05 09:49:12;;;;;;;1999.90;999.90;;;19.10;57.00;;;;;;5027535;28;20056;-82
2022/05/05 09:57:41;;;;;;;1999.90;999.90;;;19.10;56.90;;;;;;5033152;28;20021;-81
2022/05/05 10:00:37;;;;;;;1999.90;999.90;;;19.10;56.90;;;;;;5016528;28;20022;-81
2022/05/05 10:05:50;;;;;;;1999.90;999.90;;;19.00;57.00;;;;;;5033277;28;20033;-82
2022/05/05 10:08:19;;;;;;;1999.90;999.90;;;19.00;57.00;;;;;;5011330;28;20044;-81
2022/05/05 10:10:45;;;;;;;1999.90;999.90;;;19.20;56.90;;;;;;5011775;28;20486;-81
2022/05/05 10:13:14;;;;;;;1999.90;999.90;;;19.20;56.80;;;;;;5027473;28;20038;-81
2022/05/05 10:15:40;;;;;;;1999.90;999.90;;;19.20;56.70;;;;;;5043616;28;20033;-81
2022/05/05 10:18:08;;;;;;;1999.90;999.90;;;19.30;56.70;;;;;;5031896;28;20402;-81
2022/05/05 10:20:35;;;;;;;1999.90;999.90;;;19.20;56.60;;;;;;5028632;28;20037;-81
2022/05/05 10:23:09;;;;;;;1999.90;999.90;;;19.30;56.80;;;;;;5020576;28;20029;-81
2022/05/05 10:25:37;;;;;;;1999.90;999.90;;;19.20;56.80;;;;;;4998259;28;21966;-81
2022/05/05 10:28:18;;;;;;;1999.90;999.90;;;19.20;56.80;;;;;;5012266;28;20036;-82
2022/05/05 10:30:44;;;;;;;1999.90;999.90;;;19.10;56.80;;;;;;4998106;28;20034;-81
2022/05/05 10:33:11;;;;;;;1999.90;999.90;;;19.20;56.80;;;;;;5010454;28;20049;-81
2022/05/05 10:35:39;;;;;;;1999.90;999.90;;;19.30;56.80;;;;;;5015633;28;20030;-81
2022/05/05 10:38:40;;;;;;;1999.90;999.90;;;19.30;56.70;;;;;;5015086;28;20026;-81
2022/05/05 10:41:35;;;;;;;1999.90;999.90;;;19.30;56.60;;;;;;5028343;28;20025;-81
2022/05/05 10:44:16;;;;;;;1999.90;999.90;;;19.50;56.50;;;;;;5029565;28;20033;-81
2022/05/05 10:47:00;;;;;;;;;;;19.60;56.20;;;;;;5028178;28;20509;-81
2022/05/05 10:49:41;;;;;;;1999.90;999.90;;;19.70;56.00;;;;;;5029624;28;19932;-81
2022/05/05 10:52:07;;;;;;;;;;;19.90;55.90;;;;;;5028606;28;20021;-81
2022/05/05 10:54:34;;;;;;;1999.90;999.90;;;20.00;55.70;;;;;;5029603;28;20345;-82
2022/05/05 10:57:25;;;;;;;1999.90;999.90;;;20.10;55.40;;;;;;5028977;28;20527;-81
2022/05/05 11:00:07;;;;;;;;;;;20.30;55.20;;;;;;5046852;28;20052;-81
2022/05/05 11:02:33;;;;;;;1999.90;999.90;;;20.50;55.00;;;;;;5027196;28;20269;-81
2022/05/05 11:05:22;;;;;;;1999.90;999.90;;;20.60;54.90;;;;;;5020023;28;20026;-81
2022/05/05 11:07:51;;;;;;;1999.90;999.90;;;20.70;54.70;;;;;;5028204;28;20474;-82
2022/05/05 11:13:37;;;;;;;1999.90;999.90;;;21.00;54.30;;;;;;5031056;28;20401;-81
2022/05/05 11:22:18;;;;;;;1999.90;999.90;;;20.90;54.40;;;;;;5007453;28;20038;-82
2022/05/05 11:24:48;;;;;;;1999.90;999.90;;;20.90;54.10;;;;;;5025674;28;20060;-82
2022/05/05 11:27:16;;;;;;;1999.90;999.90;;;21.00;54.00;;;;;;5009780;28;20124;-81
2022/05/05 11:29:54;;;;;;;1999.90;999.90;;;21.30;53.90;;;;;;5026939;28;20037;-82
2022/05/05 11:32:21;;;;;;;1999.90;999.90;;;21.50;53.50;;;;;;5026895;28;20390;-82
2022/05/05 11:34:48;;;;;;;1999.90;999.90;;;21.70;53.20;;;;;;5021238;28;20025;-82
2022/05/05 11:37:14;;;;;;;1999.90;999.90;;;21.70;53.00;;;;;;5027487;28;20410;-82
2022/05/05 11:39:40;;;;;;;1999.90;999.90;;;21.60;53.00;;;;;;5043404;28;20033;-82
2022/05/05 11:42:10;;;;;;;1999.90;999.90;;;21.50;53.00;;;;;;5017696;28;20033;-82
2022/05/05 11:44:40;;;;;;;1999.90;999.90;;;21.50;53.20;;;;;;5026033;28;20371;-82
2022/05/05 11:47:13;;;;;;;1999.90;999.90;;;21.30;53.30;;;;;;5026757;28;20311;-82
2022/05/05 11:49:40;;;;;;;1999.90;999.90;;;21.20;53.30;;;;;;5013017;28;20045;-82
2022/05/05 11:52:06;;;;;;;1999.90;999.90;;;21.10;53.40;;;;;;5038982;28;20060;-82
2022/05/05 11:54:33;;;;;;;1999.90;999.90;;;21.00;53.50;;;;;;5042538;28;20512;-82
2022/05/05 11:56:59;;;;;;;1999.90;999.90;;;20.90;53.50;;;;;;5011866;28;20032;-82
2022/05/05 12:02:18;;;;;;;1999.90;999.90;;;20.90;53.40;;;;;;5012756;28;20025;-82
2022/05/05 12:04:55;;;;;;;1999.90;999.90;;;20.90;53.20;;;;;;5026028;28;20029;-82
2022/05/05 12:07:25;;;;;;;1999.90;999.90;;;20.90;53.00;;;;;;5025948;28;20021;-82
2022/05/05 12:09:52;;;;;;;1999.90;999.90;;;20.90;52.90;;;;;;5023764;28;20122;-82
2022/05/05 12:12:22;;;;;;;1999.90;999.90;;;21.10;52.70;;;;;;5042054;28;20032;-82
2022/05/05 12:14:53;;;;;;;1999.90;999.90;;;21.40;52.50;;;;;;5012623;28;20033;-82
2022/05/05 12:17:21;;;;;;;1999.90;999.90;;;21.70;52.00;;;;;;5009370;28;20045;-83
2022/05/05 12:19:52;;;;;;;1999.90;999.90;;;21.90;51.40;;;;;;5028903;28;20029;-82
2022/05/05 12:22:43;;;;;;;1999.90;999.90;;;21.90;51.20;;;;;;5014185;28;20022;-83
2022/05/05 12:25:14;;;;;;;;;;;21.90;51.30;;;;;;5026704;28;20105;-82
2022/05/05 12:27:41;;;;;;;1999.90;999.90;;;22.00;51.20;;;;;;5030575;28;20290;-82
2022/05/05 12:30:08;;;;;;;1999.90;999.90;;;22.20;50.90;;;;;;5033484;28;20513;-82
2022/05/05 12:32:34;;;;;;;1999.90;999.90;;;22.50;50.60;;;;;;5034518;28;20474;-83
2022/05/05 12:35:02;;;;;;;1999.90;999.90;;;22.80;50.30;;;;;;5017485;28;20030;-83
2022/05/05 12:37:28;;;;;;;1999.90;999.90;;;23.10;49.90;;;;;;5030207;28;20048;-82
2022/05/05 12:40:05;;;;;;;1999.90;999.90;;;23.10;49.40;;;;;;5045001;28;20048;-83
2022/05/05 12:42:47;;;;;;;1999.90;999.90;;;22.90;49.40;;;;;;5046241;28;20033;-82
2022/05/05 12:45:29;;;;;;;1999.90;999.90;;;22.60;49.60;;;;;;5012462;28;20074;-83
2022/05/05 12:47:58;;;;;;;1999.90;999.90;;;22.30;49.80;;;;;;5020703;28;20029;-82
2022/05/05 12:50:27;;;;;;;1999.90;999.90;;;22.20;50.00;;;;;;5029107;28;20045;-82